Time;durP1;ratioP1;P1;durP2;ratioP2;P2;SDS_P1;SDS_P2;PMS_P1;PMS_P2;Temp;Humidity;BMP_temperature;BMP_pressure;BME280_temperature;BME280_humidity;BME280_pressure;Samples;Min_cycle;Max_cycle;Signal;HPM_P1;HPM_P2
2021/09/10 00:00:07;;;;;;;8.07;5.10;;;17.60;67.80;;;;;;5056930;28;20069;-69
2021/09/10 00:02:32;;;;;;;12.95;5.00;;;17.60;67.90;;;;;;5057654;28;20079;-70
2021/09/10 00:04:58;;;;;;;8.23;5.05;;;17.60;68.00;;;;;;5057695;28;20025;-70
2021/09/10 00:07:24;;;;;;;10.57;4.95;;;17.50;68.00;;;;;;5056746;28;20029;-69
2021/09/10 00:09:49;;;;;;;9.65;5.50;;;17.50;68.10;;;;;;5057246;28;20058;-69
2021/09/10 00:12:15;;;;;;;12.23;5.25;;;17.50;67.70;;;;;;5055352;28;20108;-69
2021/09/10 00:14:40;;;;;;;8.63;5.15;;;17.50;68.00;;;;;;5054565;28;20052;-69
2021/09/10 00:17:06;;;;;;;7.60;4.90;;;17.50;68.10;;;;;;5053858;28;20024;-69
2021/09/10 00:19:31;;;;;;;11.38;4.75;;;17.40;67.90;;;;;;5053582;28;20040;-69
2021/09/10 00:21:57;;;;;;;8.82;4.60;;;17.40;67.60;;;;;;5051993;28;20033;-70
2021/09/10 00:24:23;;;;;;;8.77;4.68;;;17.40;67.80;;;;;;5051876;28;20494;-69
2021/09/10 00:26:49;;;;;;;14.43;4.72;;;17.40;68.00;;;;;;5037127;28;20033;-70
2021/09/10 00:29:15;;;;;;;8.20;5.00;;;17.40;67.80;;;;;;5037045;28;20032;-69
2021/09/10 00:31:41;;;;;;;8.95;4.53;;;17.40;67.50;;;;;;5050544;28;20040;-69
2021/09/10 00:34:06;;;;;;;7.32;5.18;;;17.40;67.50;;;;;;5052368;28;20021;-69
2021/09/10 00:36:32;;;;;;;11.30;4.78;;;17.40;67.40;;;;;;5053116;28;20100;-70
2021/09/10 00:38:57;;;;;;;8.35;4.57;;;17.40;67.30;;;;;;5068469;28;20068;-70
2021/09/10 00:41:23;;;;;;;9.98;4.55;;;17.40;67.30;;;;;;5053056;28;20086;-69
2021/09/10 00:43:49;;;;;;;10.00;4.60;;;17.40;67.10;;;;;;5052713;28;20032;-70
2021/09/10 00:46:17;;;;;;;8.88;4.55;;;17.30;67.20;;;;;;5052993;28;20087;-69
2021/09/10 00:48:43;;;;;;;12.45;4.70;;;17.30;67.30;;;;;;5051728;28;20037;-69
2021/09/10 00:51:10;;;;;;;7.07;4.22;;;17.30;67.30;;;;;;5051492;28;20536;-70
2021/09/10 00:53:35;;;;;;;14.48;5.03;;;17.30;67.30;;;;;;5052578;28;20040;-69
2021/09/10 00:56:01;;;;;;;7.40;4.28;;;17.20;67.20;;;;;;5052747;28;20478;-69
2021/09/10 00:58:27;;;;;;;10.48;5.20;;;17.20;67.20;;;;;;5068223;28;20493;-69
2021/09/10 01:00:53;;;;;;;7.45;3.88;;;17.20;67.00;;;;;;5052614;28;20025;-69
2021/09/10 01:03:19;;;;;;;9.10;4.72;;;17.20;67.30;;;;;;5052424;28;20027;-69
2021/09/10 01:05:45;;;;;;;7.25;3.85;;;17.10;67.20;;;;;;5052555;28;20084;-69
2021/09/10 01:08:12;;;;;;;9.40;4.47;;;17.00;67.20;;;;;;5051288;28;20044;-67
2021/09/10 01:10:41;;;;;;;7.45;4.45;;;17.00;67.40;;;;;;5051209;28;20037;-67
2021/09/10 01:13:07;;;;;;;6.70;4.15;;;17.00;67.60;;;;;;5042420;28;20056;-68
2021/09/10 01:15:33;;;;;;;10.02;5.25;;;17.00;67.40;;;;;;5031187;28;20148;-69
2021/09/10 01:17:59;;;;;;;6.65;4.47;;;16.90;67.70;;;;;;5031126;28;20022;-68
2021/09/10 01:20:25;;;;;;;10.27;4.78;;;16.90;67.70;;;;;;5031133;28;20071;-67
2021/09/10 01:22:50;;;;;;;9.15;4.30;;;16.90;67.70;;;;;;5030913;28;20021;-68
2021/09/10 01:25:18;;;;;;;7.22;4.10;;;16.90;67.30;;;;;;5031363;28;20398;-68
2021/09/10 01:27:59;;;;;;;8.48;4.07;;;16.90;67.40;;;;;;5030959;28;20108;-68
2021/09/10 01:30:32;;;;;;;11.13;3.90;;;16.90;67.30;;;;;;5032275;28;20036;-68
2021/09/10 01:33:03;;;;;;;5.97;3.80;;;16.80;67.40;;;;;;5031979;28;20079;-69
2021/09/10 01:35:29;;;;;;;5.68;4.55;;;16.80;67.40;;;;;;5032453;28;20067;-68
2021/09/10 01:37:55;;;;;;;5.50;4.07;;;16.80;67.00;;;;;;5047419;28;20025;-68
2021/09/10 01:40:22;;;;;;;7.70;4.43;;;16.80;67.10;;;;;;5047514;28;20026;-68
2021/09/10 01:42:48;;;;;;;9.75;3.97;;;16.80;67.20;;;;;;5032025;28;20024;-68
2021/09/10 01:45:14;;;;;;;11.07;4.50;;;16.70;66.80;;;;;;5047321;28;20422;-68
2021/09/10 01:47:40;;;;;;;9.05;4.28;;;16.70;66.40;;;;;;5031932;28;20148;-68
2021/09/10 01:50:18;;;;;;;7.15;3.95;;;16.70;66.60;;;;;;5047770;28;20039;-68
2021/09/10 01:52:44;;;;;;;9.57;4.63;;;16.70;66.50;;;;;;5031603;28;20109;-68
2021/09/10 01:55:12;;;;;;;15.63;4.15;;;16.70;66.20;;;;;;5032063;28;20064;-68
2021/09/10 01:57:40;;;;;;;10.73;4.25;;;16.70;66.40;;;;;;5031745;28;20063;-68
2021/09/10 02:00:06;;;;;;;6.90;4.10;;;16.70;66.30;;;;;;5041185;28;20029;-68
2021/09/10 02:02:32;;;;;;;7.30;3.95;;;16.70;65.80;;;;;;5051421;28;20025;-68
2021/09/10 02:04:57;;;;;;;6.65;3.85;;;16.70;65.80;;;;;;5050448;28;20071;-68
2021/09/10 02:07:23;;;;;;;10.30;4.25;;;16.70;65.70;;;;;;5051672;28;20021;-69
2021/09/10 02:09:48;;;;;;;7.20;4.30;;;16.70;65.60;;;;;;5051735;28;20052;-68
2021/09/10 02:12:14;;;;;;;5.32;3.80;;;16.70;66.10;;;;;;5051630;28;20521;-68
2021/09/10 02:14:39;;;;;;;6.45;3.55;;;16.70;65.70;;;;;;5050161;28;20066;-68
2021/09/10 02:17:05;;;;;;;10.35;3.88;;;16.60;65.40;;;;;;5050161;28;20436;-68
2021/09/10 02:19:31;;;;;;;6.38;3.90;;;16.60;65.20;;;;;;5051509;28;20021;-68
2021/09/10 02:21:57;;;;;;;7.15;4.07;;;16.70;65.30;;;;;;5050109;28;20029;-68
2021/09/10 02:24:23;;;;;;;7.25;4.32;;;16.60;65.30;;;;;;5051266;28;20044;-68
2021/09/10 02:26:49;;;;;;;7.72;4.32;;;16.60;65.40;;;;;;5051277;28;20029;-68
2021/09/10 02:29:15;;;;;;;9.70;4.00;;;16.50;65.00;;;;;;5051486;28;20436;-68
2021/09/10 02:31:41;;;;;;;8.07;3.72;;;16.60;64.90;;;;;;5051284;28;20621;-70
2021/09/10 02:34:08;;;;;;;6.47;3.65;;;16.60;65.10;;;;;;5049775;28;20032;-67
2021/09/10 02:36:36;;;;;;;5.97;4.03;;;16.50;65.30;;;;;;5051843;28;20017;-67
2021/09/10 02:39:07;;;;;;;11.18;4.10;;;16.50;65.60;;;;;;5055293;28;20040;-68
2021/09/10 02:41:33;;;;;;;11.77;3.97;;;16.50;65.80;;;;;;5055291;28;20021;-68
2021/09/10 02:43:59;;;;;;;7.00;3.55;;;16.50;65.60;;;;;;5054959;28;20029;-68
2021/09/10 02:46:24;;;;;;;6.75;4.13;;;16.40;66.30;;;;;;5055073;28;20115;-68
2021/09/10 02:48:51;;;;;;;8.07;3.90;;;16.40;66.40;;;;;;5055051;28;20029;-68
2021/09/10 02:51:17;;;;;;;5.65;3.70;;;16.40;66.30;;;;;;5053803;28;20021;-68
2021/09/10 02:53:42;;;;;;;5.25;3.38;;;16.40;66.30;;;;;;5053354;28;20441;-68
2021/09/10 02:56:08;;;;;;;7.10;3.92;;;16.30;66.60;;;;;;5053745;28;20439;-68
2021/09/10 02:58:33;;;;;;;8.00;3.95;;;16.40;66.60;;;;;;5054863;28;20431;-68
2021/09/10 03:01:01;;;;;;;7.20;3.42;;;16.40;66.10;;;;;;5053403;28;20017;-68
2021/09/10 03:03:28;;;;;;;6.47;3.50;;;16.40;65.90;;;;;;5054427;28;20482;-68
2021/09/10 03:05:54;;;;;;;6.35;3.38;;;16.30;65.80;;;;;;5054743;28;20108;-68
2021/09/10 03:08:19;;;;;;;5.63;3.67;;;16.30;65.70;;;;;;5054666;28;20140;-68
2021/09/10 03:10:45;;;;;;;6.75;3.65;;;16.40;65.30;;;;;;5053327;28;20040;-68
2021/09/10 03:13:10;;;;;;;20.85;13.23;;;16.40;65.40;;;;;;5046580;28;20017;-69
2021/09/10 03:15:36;;;;;;;7.13;5.00;;;16.40;65.70;;;;;;5034525;28;20422;-68
2021/09/10 03:18:02;;;;;;;7.45;4.22;;;16.30;65.50;;;;;;5034362;28;20052;-69
2021/09/10 03:20:28;;;;;;;11.05;3.80;;;16.30;65.80;;;;;;5033010;28;20029;-68
2021/09/10 03:22:53;;;;;;;8.52;3.83;;;16.30;66.10;;;;;;5034218;28;20076;-68
2021/09/10 03:25:19;;;;;;;77.78;43.17;;;16.20;65.80;;;;;;5033409;28;20376;-68
2021/09/10 03:27:45;;;;;;;9.57;4.75;;;16.20;66.00;;;;;;5034281;28;20498;-68
2021/09/10 03:30:11;;;;;;;7.28;3.58;;;16.20;65.60;;;;;;5033109;28;20033;-68
2021/09/10 03:32:37;;;;;;;11.40;4.97;;;16.20;65.50;;;;;;5033916;28;20029;-68
2021/09/10 03:35:03;;;;;;;7.00;4.40;;;16.20;65.70;;;;;;5033005;28;20075;-69
2021/09/10 03:37:29;;;;;;;5.53;3.67;;;16.10;65.80;;;;;;5032877;28;20029;-68
2021/09/10 03:39:55;;;;;;;7.80;3.70;;;16.10;65.90;;;;;;5034119;28;20029;-69
2021/09/10 03:42:20;;;;;;;8.48;3.47;;;16.00;66.20;;;;;;5033955;28;20048;-68
2021/09/10 03:44:46;;;;;;;7.72;4.03;;;16.00;66.40;;;;;;5032747;28;20025;-69
2021/09/10 03:47:12;;;;;;;7.30;3.50;;;16.00;66.40;;;;;;5033603;28;20040;-69
2021/09/10 03:49:37;;;;;;;5.53;3.50;;;16.00;66.30;;;;;;5032941;28;20108;-69
2021/09/10 03:52:04;;;;;;;8.38;3.72;;;16.00;66.30;;;;;;5032579;28;20034;-69
2021/09/10 03:54:30;;;;;;;11.18;4.18;;;16.00;66.20;;;;;;5033706;28;20025;-69
2021/09/10 03:56:55;;;;;;;6.70;3.67;;;16.00;66.20;;;;;;5033938;28;20105;-69
2021/09/10 03:59:21;;;;;;;4.18;3.30;;;16.00;66.60;;;;;;5036960;28;20053;-69
2021/09/10 04:01:46;;;;;;;5.20;3.47;;;16.00;66.90;;;;;;5053550;28;20078;-68
2021/09/10 04:04:12;;;;;;;5.55;3.70;;;15.90;66.90;;;;;;5053481;28;20083;-69
2021/09/10 04:06:37;;;;;;;9.32;3.92;;;15.90;67.00;;;;;;5053543;28;20029;-69
2021/09/10 04:09:03;;;;;;;7.60;3.92;;;15.90;66.80;;;;;;5053740;28;20021;-68
2021/09/10 04:11:28;;;;;;;10.77;4.03;;;15.90;66.90;;;;;;5053733;28;20017;-69
2021/09/10 04:13:54;;;;;;;6.20;3.35;;;15.80;66.90;;;;;;5053295;28;20040;-69
2021/09/10 04:16:19;;;;;;;5.78;3.72;;;15.90;66.80;;;;;;5052032;28;20037;-69
2021/09/10 04:18:45;;;;;;;5.88;3.65;;;15.80;67.00;;;;;;5053352;28;20060;-69
2021/09/10 04:21:10;;;;;;;10.18;3.72;;;15.80;66.80;;;;;;5052051;28;20021;-69
2021/09/10 04:23:36;;;;;;;7.28;4.10;;;15.80;66.90;;;;;;5053012;28;20502;-69
2021/09/10 04:26:02;;;;;;;4.05;3.13;;;15.80;67.20;;;;;;5053246;28;20037;-68
2021/09/10 04:28:27;;;;;;;4.85;3.33;;;15.70;67.70;;;;;;5053062;28;20029;-69
2021/09/10 04:30:53;;;;;;;11.65;3.38;;;15.70;67.80;;;;;;5053005;28;20029;-69
2021/09/10 04:33:21;;;;;;;8.80;3.75;;;15.70;67.70;;;;;;5052606;28;20387;-69
2021/09/10 04:35:47;;;;;;;7.07;3.17;;;15.70;67.70;;;;;;5053045;28;20431;-69
2021/09/10 04:38:12;;;;;;;7.60;3.42;;;15.70;67.60;;;;;;5052903;28;20060;-69
2021/09/10 04:40:38;;;;;;;12.32;4.07;;;15.70;67.80;;;;;;5052971;28;20064;-69
2021/09/10 04:43:04;;;;;;;8.45;3.70;;;15.70;67.60;;;;;;5051257;28;20486;-69
2021/09/10 04:45:29;;;;;;;11.13;4.43;;;15.80;67.50;;;;;;5051173;28;20037;-68
2021/09/10 04:47:58;;;;;;;7.70;3.78;;;15.80;67.90;;;;;;5052503;28;20037;-69
2021/09/10 04:50:24;;;;;;;6.15;3.67;;;15.90;67.10;;;;;;5051240;28;20025;-69
2021/09/10 04:52:49;;;;;;;4.60;3.30;;;16.00;67.00;;;;;;5052211;28;20082;-70
2021/09/10 04:55:15;;;;;;;5.85;3.17;;;16.00;66.50;;;;;;5052459;28;20513;-68
2021/09/10 04:57:41;;;;;;;14.55;3.88;;;16.00;66.30;;;;;;5051233;28;20024;-69
2021/09/10 05:00:09;;;;;;;5.85;3.42;;;16.10;65.90;;;;;;5051877;28;20433;-69
2021/09/10 05:02:37;;;;;;;10.93;3.72;;;16.30;65.80;;;;;;5050678;28;20085;-69
2021/09/10 05:05:03;;;;;;;6.38;3.17;;;16.70;64.30;;;;;;5052417;28;20143;-69
2021/09/10 05:07:29;;;;;;;5.95;3.40;;;17.10;63.50;;;;;;5041428;28;20021;-69
2021/09/10 05:09:54;;;;;;;10.80;3.85;;;17.40;61.90;;;;;;5032163;28;20033;-70
2021/09/10 05:12:20;;;;;;;8.77;3.63;;;17.60;60.90;;;;;;5032059;28;20124;-69
2021/09/10 05:14:45;;;;;;;9.00;3.92;;;17.80;60.60;;;;;;5031932;28;20017;-69
2021/09/10 05:17:11;;;;;;;8.10;3.22;;;18.20;59.40;;;;;;5031786;28;20108;-69
2021/09/10 05:19:36;;;;;;;4.65;3.30;;;18.80;57.70;;;;;;5031983;28;20022;-69
2021/09/10 05:22:02;;;;;;;11.07;4.13;;;19.00;56.70;;;;;;5032028;28;20033;-69
2021/09/10 05:24:28;;;;;;;7.97;3.35;;;19.50;54.10;;;;;;5031532;28;20037;-70
2021/09/10 05:26:53;;;;;;;12.88;3.85;;;19.90;53.90;;;;;;5047040;28;20025;-70
2021/09/10 05:29:19;;;;;;;4.57;3.55;;;20.00;53.20;;;;;;5031848;28;20053;-70
2021/09/10 05:31:44;;;;;;;7.40;3.30;;;20.20;51.70;;;;;;5031789;28;20095;-70
2021/09/10 05:34:11;;;;;;;7.00;3.10;;;20.60;51.40;;;;;;5030907;28;20025;-70
2021/09/10 05:36:37;;;;;;;8.38;3.30;;;21.00;49.80;;;;;;5031902;28;20075;-70
2021/09/10 05:39:03;;;;;;;11.57;2.95;;;21.10;48.80;;;;;;5031789;28;20021;-70
2021/09/10 05:41:29;;;;;;;10.45;3.08;;;21.30;48.30;;;;;;5031497;28;20441;-70
2021/09/10 05:43:54;;;;;;;5.05;3.20;;;21.60;48.60;;;;;;5031131;28;20444;-70
2021/09/10 05:46:20;;;;;;;8.55;2.97;;;21.90;47.50;;;;;;5031360;28;20048;-70
2021/09/10 05:48:45;;;;;;;9.00;3.70;;;22.60;46.30;;;;;;5068646;22;20041;-67
2021/09/10 05:51:12;;;;;;;5.57;3.58;;;22.70;45.80;;;;;;5051578;28;20013;-67
2021/09/10 05:53:38;;;;;;;6.65;3.30;;;23.20;44.50;;;;;;5051380;28;20021;-66
2021/09/10 05:56:04;;;;;;;10.10;3.75;;;23.50;43.50;;;;;;5051666;28;20605;-66
2021/09/10 05:58:29;;;;;;;4.75;3.45;;;23.50;43.00;;;;;;5051618;28;20063;-66
2021/09/10 06:00:55;;;;;;;9.55;3.50;;;23.70;43.30;;;;;;5050201;28;20147;-66
2021/09/10 06:03:20;;;;;;;8.93;3.58;;;23.20;43.90;;;;;;5051172;28;20071;-66
2021/09/10 06:05:46;;;;;;;8.73;3.28;;;23.30;43.90;;;;;;5052352;28;20030;-66
2021/09/10 06:08:11;;;;;;;12.93;3.95;;;23.40;43.80;;;;;;5059231;28;20521;-67
2021/09/10 06:10:37;;;;;;;10.88;3.15;;;23.10;44.70;;;;;;5059416;28;20029;-67
2021/09/10 06:13:03;;;;;;;10.43;3.30;;;22.90;45.50;;;;;;5054167;28;20025;-66
2021/09/10 06:15:28;;;;;;;12.40;3.70;;;22.70;46.30;;;;;;5074604;28;20401;-67
2021/09/10 06:17:54;;;;;;;13.43;3.30;;;22.90;46.30;;;;;;5075217;28;20125;-67
2021/09/10 06:20:19;;;;;;;13.20;3.83;;;23.00;46.10;;;;;;5075260;28;20028;-67
2021/09/10 06:22:45;;;;;;;11.02;4.00;;;23.80;45.20;;;;;;5066390;28;20033;-68
2021/09/10 06:25:11;;;;;;;8.98;3.53;;;23.90;44.20;;;;;;5054103;28;20025;-67
2021/09/10 06:27:41;;;;;;;10.57;3.90;;;23.50;45.40;;;;;;5053761;28;20037;-74
2021/09/10 06:30:07;;;;;;;11.40;3.80;;;23.70;44.00;;;;;;5055417;28;20487;-73
2021/09/10 06:32:34;;;;;;;10.32;3.15;;;24.00;43.70;;;;;;5049741;28;20040;-73
2021/09/10 06:34:59;;;;;;;10.30;3.88;;;24.20;42.70;;;;;;5051784;28;20060;-73
2021/09/10 06:37:25;;;;;;;9.00;3.28;;;24.50;42.50;;;;;;5053632;28;20063;-73
2021/09/10 06:39:51;;;;;;;9.73;4.00;;;25.00;41.10;;;;;;5063732;28;20027;-73
2021/09/10 06:42:17;;;;;;;11.98;3.53;;;25.20;40.40;;;;;;5075047;28;20028;-72
2021/09/10 06:44:42;;;;;;;37.03;26.63;;;25.10;41.40;;;;;;5073593;28;20031;-74
2021/09/10 06:47:08;;;;;;;6.00;4.10;;;25.20;41.30;;;;;;5075029;28;20078;-74
2021/09/10 06:49:34;;;;;;;13.55;6.40;;;25.50;40.10;;;;;;5075111;28;20497;-70
2021/09/10 06:51:59;;;;;;;10.65;5.15;;;25.20;41.10;;;;;;5073814;28;20039;-68
2021/09/10 06:54:25;;;;;;;13.27;8.68;;;25.50;40.30;;;;;;5055163;28;20482;-70
2021/09/10 06:56:51;;;;;;;15.30;10.02;;;25.80;40.70;;;;;;5038037;28;20018;-72
2021/09/10 06:59:19;;;;;;;6.70;3.63;;;26.00;41.00;;;;;;5054663;28;20071;-70
2021/09/10 07:01:49;;;;;;;6.85;3.80;;;26.30;40.10;;;;;;5054798;28;20498;-72
2021/09/10 07:04:15;;;;;;;8.13;4.27;;;26.90;39.10;;;;;;5054751;28;20025;-72
2021/09/10 07:06:40;;;;;;;12.55;3.42;;;27.20;37.80;;;;;;5053368;28;20469;-69
2021/09/10 07:09:06;;;;;;;5.50;3.50;;;27.10;38.80;;;;;;5051540;28;20020;-74
2021/09/10 07:11:33;;;;;;;7.63;3.55;;;27.00;38.00;;;;;;5050921;28;20070;-72
2021/09/10 07:13:59;;;;;;;8.57;4.15;;;27.20;37.70;;;;;;5053883;28;20032;-69
2021/09/10 07:16:25;;;;;;;10.30;3.83;;;26.50;38.60;;;;;;5054477;28;20638;-69
2021/09/10 07:18:50;;;;;;;7.07;3.25;;;26.40;39.40;;;;;;5054287;28;20032;-67
2021/09/10 07:21:16;;;;;;;14.27;3.88;;;26.50;38.40;;;;;;5054340;28;20021;-67
2021/09/10 07:23:43;;;;;;;6.97;3.47;;;26.30;40.20;;;;;;5054070;28;20505;-67
2021/09/10 07:26:09;;;;;;;11.90;3.72;;;26.60;39.20;;;;;;5054263;28;20027;-67
2021/09/10 07:28:35;;;;;;;5.90;3.47;;;27.30;38.40;;;;;;5054068;28;20021;-67
2021/09/10 07:31:01;;;;;;;9.00;2.88;;;27.80;37.10;;;;;;5054226;28;20025;-67
2021/09/10 07:33:27;;;;;;;4.80;3.63;;;28.50;36.10;;;;;;5053801;28;20025;-67
2021/09/10 07:35:53;;;;;;;8.18;3.30;;;29.20;35.60;;;;;;5054030;28;20025;-67
2021/09/10 07:38:19;;;;;;;5.75;3.35;;;29.60;34.20;;;;;;5053518;28;20360;-67
2021/09/10 07:40:45;;;;;;;9.77;3.10;;;29.80;34.00;;;;;;5054058;28;20021;-67
2021/09/10 07:43:10;;;;;;;7.97;3.08;;;29.60;33.90;;;;;;5053193;28;20025;-67
2021/09/10 07:45:36;;;;;;;4.57;2.97;;;29.30;35.10;;;;;;5049291;28;20375;-67
2021/09/10 07:48:01;;;;;;;8.13;2.97;;;29.40;35.00;;;;;;5033688;28;20034;-67
2021/09/10 07:50:28;;;;;;;10.50;3.45;;;29.60;34.50;;;;;;5033965;28;20044;-67
2021/09/10 07:52:53;;;;;;;14.20;3.20;;;29.30;33.80;;;;;;5033397;28;20435;-67
2021/09/10 07:55:19;;;;;;;8.13;3.28;;;28.40;36.20;;;;;;5033637;28;20068;-68
2021/09/10 07:57:44;;;;;;;8.40;3.20;;;28.10;36.60;;;;;;5033718;28;20053;-67
2021/09/10 08:00:10;;;;;;;9.73;3.30;;;28.90;36.30;;;;;;5033817;28;20021;-66
2021/09/10 08:02:37;;;;;;;8.27;3.85;;;28.50;35.90;;;;;;5033449;28;20037;-67
2021/09/10 08:05:03;;;;;;;6.30;3.15;;;27.60;37.00;;;;;;5033678;28;20025;-65
2021/09/10 08:07:29;;;;;;;12.43;3.70;;;27.10;38.50;;;;;;5032585;28;20120;-65
2021/09/10 08:09:55;;;;;;;7.40;3.78;;;26.30;39.40;;;;;;5048959;28;20064;-65
2021/09/10 08:12:20;;;;;;;7.03;3.40;;;26.50;39.60;;;;;;5033295;28;20035;-66
2021/09/10 08:14:46;;;;;;;4.97;3.15;;;26.10;41.10;;;;;;5048681;28;20065;-66
2021/09/10 08:17:11;;;;;;;11.63;3.58;;;26.00;42.20;;;;;;5053484;28;20433;-67
2021/09/10 08:19:37;;;;;;;7.90;3.30;;;26.40;40.30;;;;;;5053320;28;20450;-67
2021/09/10 08:22:02;;;;;;;9.25;3.30;;;26.40;40.40;;;;;;5053477;28;20043;-67
2021/09/10 08:24:28;;;;;;;5.45;3.22;;;26.30;40.40;;;;;;5052366;28;20033;-66
2021/09/10 08:26:53;;;;;;;7.75;3.38;;;26.20;41.30;;;;;;5052256;28;20029;-67
2021/09/10 08:29:19;;;;;;;12.27;3.60;;;26.30;42.00;;;;;;5053488;28;20036;-66
2021/09/10 08:31:45;;;;;;;9.32;3.30;;;26.00;42.50;;;;;;5053382;28;20112;-67
2021/09/10 08:34:10;;;;;;;7.57;3.67;;;26.10;42.50;;;;;;5050682;28;20021;-67
2021/09/10 08:36:36;;;;;;;9.82;3.72;;;26.60;42.40;;;;;;5051755;28;20021;-68
2021/09/10 08:39:02;;;;;;;12.23;3.60;;;26.70;41.00;;;;;;5052792;28;20580;-67
2021/09/10 08:41:30;;;;;;;11.63;3.65;;;26.60;41.90;;;;;;5052263;28;20056;-67
2021/09/10 08:44:01;;;;;;;12.70;3.67;;;26.40;42.10;;;;;;5051184;28;20025;-67
2021/09/10 08:46:27;;;;;;;7.80;3.35;;;26.40;42.80;;;;;;5052732;28;20108;-67
2021/09/10 08:48:53;;;;;;;7.07;3.13;;;26.20;42.70;;;;;;5052593;28;20033;-67
2021/09/10 08:51:19;;;;;;;10.77;3.90;;;26.00;42.70;;;;;;5051393;28;20596;-67
2021/09/10 08:53:44;;;;;;;10.23;3.30;;;25.50;43.40;;;;;;5052221;28;20040;-67
2021/09/10 08:56:10;;;;;;;4.03;2.88;;;25.30;45.00;;;;;;5052245;28;20040;-67
2021/09/10 08:58:36;;;;;;;10.38;3.13;;;25.10;45.40;;;;;;5052568;28;20025;-67
2021/09/10 09:01:03;;;;;;;7.88;3.55;;;24.70;46.00;;;;;;5051238;28;20017;-67
2021/09/10 09:03:34;;;;;;;7.95;3.35;;;24.40;46.60;;;;;;5050899;28;20121;-67
2021/09/10 09:05:59;;;;;;;11.80;3.78;;;24.30;47.10;;;;;;5052018;28;20033;-67
2021/09/10 09:08:25;;;;;;;8.88;3.70;;;24.20;47.60;;;;;;5051875;28;20107;-67
2021/09/10 09:10:54;;;;;;;6.43;3.50;;;24.20;47.50;;;;;;5035767;28;20113;-66
2021/09/10 09:13:20;;;;;;;13.45;3.45;;;24.50;48.80;;;;;;5050614;28;20028;-66
2021/09/10 09:15:46;;;;;;;9.73;3.50;;;25.20;46.00;;;;;;5052199;28;20422;-66
2021/09/10 09:18:12;;;;;;;7.93;3.45;;;26.00;44.20;;;;;;5052182;28;20347;-66
2021/09/10 09:20:38;;;;;;;7.80;3.33;;;26.00;44.30;;;;;;5051542;28;20142;-66
2021/09/10 09:23:11;;;;;;;10.43;3.40;;;25.60;44.20;;;;;;5049741;28;20035;-66
2021/09/10 09:25:42;;;;;;;6.30;3.25;;;25.70;45.10;;;;;;5050134;28;20095;-66
2021/09/10 09:28:31;;;;;;;5.40;3.30;;;26.10;44.80;;;;;;5048780;28;20556;-66
2021/09/10 09:30:59;;;;;;;11.73;3.80;;;26.30;44.20;;;;;;5049852;28;20150;-66
2021/09/10 09:33:31;;;;;;;6.97;3.90;;;26.40;44.40;;;;;;5049646;28;20502;-66
2021/09/10 09:35:58;;;;;;;7.93;3.28;;;26.00;45.40;;;;;;5049130;28;20540;-66
2021/09/10 09:38:27;;;;;;;5.38;3.40;;;26.40;45.20;;;;;;5051783;28;20021;-67
2021/09/10 09:40:54;;;;;;;7.00;3.03;;;26.20;44.50;;;;;;5052078;28;20406;-67
2021/09/10 09:43:22;;;;;;;8.02;3.30;;;26.00;45.10;;;;;;5051441;28;20033;-66
2021/09/10 09:45:53;;;;;;;9.60;3.78;;;26.20;45.40;;;;;;5047085;28;20075;-66
2021/09/10 09:48:21;;;;;;;5.53;3.33;;;26.20;45.30;;;;;;5031354;28;20095;-67
2021/09/10 09:50:48;;;;;;;11.93;3.80;;;26.60;45.10;;;;;;5031797;28;20029;-66
2021/09/10 09:53:15;;;;;;;8.13;3.45;;;26.50;45.40;;;;;;5031251;28;20061;-65
2021/09/10 09:55:45;;;;;;;9.32;3.67;;;26.70;46.40;;;;;;5030412;28;20025;-67
2021/09/10 09:58:13;;;;;;;9.20;3.80;;;27.10;46.60;;;;;;5030517;28;20053;-67
2021/09/10 10:00:40;;;;;;;7.70;3.70;;;27.20;44.70;;;;;;5032040;28;20498;-66
2021/09/10 10:03:07;;;;;;;10.70;3.95;;;27.10;45.40;;;;;;5031142;28;20032;-66
2021/09/10 10:05:42;;;;;;;10.32;3.58;;;27.10;45.30;;;;;;5031621;28;20021;-66
2021/09/10 10:08:12;;;;;;;6.05;3.80;;;27.00;46.90;;;;;;5031583;28;20119;-66
2021/09/10 10:10:44;;;;;;;16.10;4.10;;;26.90;47.40;;;;;;5038843;28;20033;-66
2021/09/10 10:13:18;;;;;;;7.50;3.95;;;26.90;47.80;;;;;;5049665;28;20032;-65
2021/09/10 10:15:45;;;;;;;7.05;4.20;;;27.00;47.80;;;;;;5051255;28;20104;-64
2021/09/10 10:18:11;;;;;;;10.45;3.95;;;26.50;49.70;;;;;;5033603;28;20044;-65
2021/09/10 10:20:46;;;;;;;12.50;4.63;;;26.40;51.20;;;;;;5051641;28;20021;-66
2021/09/10 10:23:48;;;;;;;10.40;4.13;;;26.40;50.20;;;;;;5051168;28;20104;-66
2021/09/10 10:26:32;;;;;;;15.07;4.80;;;26.40;51.20;;;;;;5051475;28;20104;-66
2021/09/10 10:29:07;;;;;;;12.32;4.32;;;26.30;51.90;;;;;;5049984;28;20052;-65
2021/09/10 10:31:59;;;;;;;9.50;5.07;;;26.20;52.10;;;;;;5051280;28;20159;-66
2021/09/10 10:34:27;;;;;;;6.10;4.43;;;26.10;52.20;;;;;;5051082;28;20486;-66
2021/09/10 10:36:52;;;;;;;6.97;4.57;;;26.20;52.90;;;;;;5049838;28;20044;-66
2021/09/10 10:39:27;;;;;;;6.97;4.30;;;26.30;53.10;;;;;;5050944;28;20033;-66
2021/09/10 10:41:58;;;;;;;10.30;4.15;;;26.50;52.80;;;;;;5050715;28;20053;-66
2021/09/10 10:44:32;;;;;;;7.55;4.18;;;26.50;52.90;;;;;;5050674;28;20045;-66
2021/09/10 10:47:05;;;;;;;6.10;4.03;;;26.70;53.20;;;;;;5030998;28;20049;-67
2021/09/10 10:49:48;;;;;;;14.85;4.80;;;27.00;54.00;;;;;;5037404;28;20033;-66
2021/09/10 10:52:23;;;;;;;7.63;4.18;;;27.00;52.50;;;;;;5050811;28;20036;-67
2021/09/10 10:55:22;;;;;;;9.32;5.00;;;27.10;52.20;;;;;;5050875;28;20431;-65
2021/09/10 10:57:49;;;;;;;7.13;4.20;;;27.00;52.10;;;;;;5051708;28;20104;-66
2021/09/10 11:00:33;;;;;;;9.65;4.57;;;27.10;52.50;;;;;;5054670;28;20021;-66
2021/09/10 11:03:14;;;;;;;6.20;4.07;;;27.40;53.00;;;;;;5054107;28;20450;-66
2021/09/10 11:05:46;;;;;;;11.10;4.85;;;27.50;51.40;;;;;;5054690;28;20082;-66
2021/09/10 11:08:35;;;;;;;7.13;4.47;;;27.70;51.30;;;;;;5053512;28;20671;-67
2021/09/10 11:11:01;;;;;;;6.65;4.32;;;27.70;51.30;;;;;;5041784;28;20109;-67
2021/09/10 11:13:28;;;;;;;8.15;4.35;;;;;;;;;;5034233;28;20021;-66
2021/09/10 11:15:55;;;;;;;8.27;4.22;;;;;;;;;;5047043;28;20036;-67
2021/09/10 11:18:23;;;;;;;7.28;4.30;;;;;;;;;;5054036;28;20096;-66
2021/09/10 11:20:51;;;;;;;5.63;3.95;;;;;;;;;;5052805;28;20052;-66
2021/09/10 11:23:28;;;;;;;6.28;3.42;;;;;;;;;;5053967;28;20543;-66
2021/09/10 11:25:55;;;;;;;5.60;3.88;;;;;;;;;;5054319;28;20116;-66
2021/09/10 11:28:22;;;;;;;4.10;3.20;;;;;;;;;;5054195;28;20071;-66
2021/09/10 11:30:49;;;;;;;4.93;3.80;;;;;;;;;;5052759;28;20648;-66
2021/09/10 11:33:15;;;;;;;5.47;3.65;;;;;;;;;;5053638;28;20035;-66
2021/09/10 11:35:42;;;;;;;6.25;3.70;;;;;;;;;;5054093;28;20025;-66
2021/09/10 11:38:09;;;;;;;5.80;4.03;;;;;;;;;;5054109;28;20028;-66
2021/09/10 11:40:40;;;;;;;7.82;4.10;;;;;;;;;;5053944;28;20045;-66
2021/09/10 11:43:06;;;;;;;;;;;;;;;;;;5052577;28;20494;-65
2021/09/10 11:45:35;;;;;;;11.38;4.60;;;;;;;;;;5053615;28;19911;-67
2021/09/10 11:48:03;;;;;;;9.50;5.20;;;;;;;;;;5068171;22;21152;-67
2021/09/10 11:50:43;;;;;;;8.30;5.32;;;;;;;;;;5053700;28;20075;-67
2021/09/10 11:53:16;;;;;;;7.15;5.07;;;;;;;;;;5051807;28;20037;-67
2021/09/10 11:55:53;;;;;;;16.00;5.57;;;;;;;;;;5053840;28;20021;-67
2021/09/10 11:58:19;;;;;;;10.18;5.07;;;;;;;;;;5053519;28;20017;-68
2021/09/10 12:00:45;;;;;;;8.65;4.90;;;;;;;;;;5053489;28;20100;-68
2021/09/10 12:03:11;;;;;;;7.50;5.63;;;;;;;;;;5051722;28;20115;-69
2021/09/10 12:05:37;;;;;;;7.10;4.65;;;;;;;;;;5053308;28;20029;-68
2021/09/10 12:08:11;;;;;;;14.90;5.70;;;;;;;;;;5053377;28;20486;-68
2021/09/10 12:10:37;;;;;;;10.23;5.35;;;;;;;;;;5052354;28;20490;-69
2021/09/10 12:13:12;;;;;;;6.57;4.95;;;;;;;;;;5053073;28;20033;-69
2021/09/10 12:15:40;;;;;;;9.30;4.53;;;;;;;;;;5052219;28;20013;-68
2021/09/10 12:18:16;;;;;;;10.15;5.20;;;;;;;;;;5053497;28;20021;-69
2021/09/10 12:20:42;;;;;;;7.85;4.90;;;;;;;;;;5053270;28;20530;-69
2021/09/10 12:23:18;;;;;;;5.43;3.90;;;;;;;;;;5051305;28;20040;-68
2021/09/10 12:25:46;;;;;;;7.53;4.28;;;;;;;;;;5053457;28;20383;-68
2021/09/10 12:28:14;;;;;;;8.48;4.97;;;;;;;;;;5053082;28;20029;-67
2021/09/10 12:30:50;;;;;;;12.02;5.05;;;;;;;;;;5053079;28;20143;-67
2021/09/10 12:33:18;;;;;;;7.05;5.07;;;;;;;;;;5051223;28;20032;-68
2021/09/10 12:35:44;;;;;;;7.10;4.82;;;;;;;;;;5052964;28;20028;-68
2021/09/10 12:38:12;;;;;;;11.43;5.32;;;;;;;;;;5052870;28;20116;-68
2021/09/10 12:40:39;;;;;;;9.05;4.90;;;;;;;;;;5052851;28;20047;-68
2021/09/10 12:43:06;;;;;;;7.63;5.10;;;;;;;;;;5052205;28;20532;-67
2021/09/10 12:45:32;;;;;;;10.95;4.90;;;;;;;;;;5052736;28;20063;-68
2021/09/10 12:48:00;;;;;;;7.65;4.32;;;;;;;;;;5052041;28;20032;-68
2021/09/10 12:50:26;;;;;;;9.48;5.25;;;;;;;;;;5036771;28;20494;-68
2021/09/10 12:52:52;;;;;;;22.00;13.88;;;;;;;;;;5032083;28;20025;-68
2021/09/10 12:55:18;;;;;;;9.32;4.70;;;;;;;;;;5032456;28;20026;-67
2021/09/10 12:57:44;;;;;;;9.43;4.20;;;;;;;;;;5030882;28;20029;-66